Time;durP1;ratioP1;P1;durP2;ratioP2;P2;SDS_P1;SDS_P2;PMS_P1;PMS_P2;Temp;Humidity;BMP_temperature;BMP_pressure;BME280_temperature;BME280_humidity;BME280_pressure;Samples;Min_cycle;Max_cycle;Signal;HPM_P1;HPM_P2
2021/06/30 00:02:19;;;;;;;26.60;21.70;;;20.60;99.90;;;;;;5071325;22;20501;-80
2021/06/30 00:04:46;;;;;;;23.93;21.57;;;20.50;99.90;;;;;;5053972;28;20873;-79
2021/06/30 00:07:12;;;;;;;24.87;22.43;;;20.50;99.90;;;;;;5054471;28;20499;-78
2021/06/30 00:09:39;;;;;;;26.33;23.73;;;20.40;99.90;;;;;;5054321;28;20484;-77
2021/06/30 00:12:07;;;;;;;24.17;22.03;;;20.40;99.90;;;;;;5058115;28;20490;-77
2021/06/30 00:14:34;;;;;;;23.63;21.33;;;20.40;99.90;;;;;;5057968;28;20495;-77
2021/06/30 00:17:03;;;;;;;24.67;22.30;;;20.50;99.90;;;;;;5057485;28;20569;-77
2021/06/30 00:19:30;;;;;;;23.87;21.67;;;20.50;99.90;;;;;;5054980;28;20472;-78
2021/06/30 00:21:57;;;;;;;25.20;22.53;;;20.60;99.90;;;;;;5054096;28;20457;-79
2021/06/30 00:24:23;;;;;;;25.57;22.93;;;20.60;99.90;;;;;;5054256;28;20512;-78
2021/06/30 00:26:50;;;;;;;26.07;23.47;;;20.70;99.90;;;;;;5055120;28;20860;-78
2021/06/30 00:29:17;;;;;;;27.80;25.07;;;20.70;99.90;;;;;;5060022;28;20855;-78
2021/06/30 00:31:43;;;;;;;26.00;23.33;;;20.60;99.90;;;;;;5059694;28;20465;-78
2021/06/30 00:34:11;;;;;;;25.97;23.60;;;20.50;99.90;;;;;;5060404;28;20479;-79
2021/06/30 00:36:43;;;;;;;24.63;22.33;;;20.50;99.90;;;;;;5057998;28;20500;-79
2021/06/30 00:39:11;;;;;;;26.93;24.43;;;20.50;99.90;;;;;;5058609;28;20430;-79
2021/06/30 00:41:38;;;;;;;26.13;23.63;;;20.40;99.90;;;;;;5058855;28;20503;-79
2021/06/30 00:44:05;;;;;;;26.00;23.40;;;20.50;99.90;;;;;;5058658;28;20479;-79
2021/06/30 00:46:34;;;;;;;26.33;23.83;;;20.70;99.90;;;;;;5061600;28;20831;-79
2021/06/30 00:49:01;;;;;;;25.47;22.97;;;20.70;99.90;;;;;;5062927;28;20497;-79
2021/06/30 00:51:29;;;;;;;26.03;23.43;;;20.80;99.90;;;;;;5062774;28;20477;-79
2021/06/30 00:53:56;;;;;;;24.70;22.10;;;20.70;99.90;;;;;;5063021;28;20445;-79
2021/06/30 00:56:26;;;;;;;25.17;22.97;;;20.60;99.90;;;;;;5063181;28;20445;-79
2021/06/30 00:58:55;;;;;;;26.80;24.07;;;20.50;99.90;;;;;;5062798;28;20426;-78
2021/06/30 01:01:22;;;;;;;27.17;24.40;;;20.40;99.90;;;;;;5063258;28;20440;-78
2021/06/30 01:03:50;;;;;;;26.83;24.13;;;20.40;99.90;;;;;;5075215;28;20936;-79
2021/06/30 01:06:17;;;;;;;27.90;25.20;;;20.40;99.90;;;;;;5065837;28;20499;-78
2021/06/30 01:08:46;;;;;;;27.80;25.13;;;20.40;99.90;;;;;;5059555;28;20480;-79
2021/06/30 01:11:13;;;;;;;26.70;23.93;;;20.40;99.90;;;;;;5060925;28;20449;-79
2021/06/30 01:13:41;;;;;;;28.23;25.60;;;20.40;99.90;;;;;;5062934;28;20501;-78
2021/06/30 01:16:08;;;;;;;29.10;26.07;;;20.40;99.90;;;;;;5060796;28;20461;-79
2021/06/30 01:18:36;;;;;;;28.83;26.13;;;20.50;99.90;;;;;;5058603;28;20454;-79
2021/06/30 01:21:05;;;;;;;30.43;27.13;;;20.40;99.90;;;;;;5057832;28;20453;-79
2021/06/30 01:23:33;;;;;;;33.53;29.40;;;20.30;99.90;;;;;;5057698;28;20478;-79
2021/06/30 01:26:00;;;;;;;33.97;30.27;;;20.20;99.90;;;;;;5057880;28;20796;-79
2021/06/30 01:28:27;;;;;;;31.27;28.10;;;20.10;99.90;;;;;;5057719;28;20477;-78
2021/06/30 01:30:54;;;;;;;31.57;28.17;;;19.90;99.90;;;;;;5057488;28;20487;-78
2021/06/30 01:33:21;;;;;;;32.70;29.17;;;19.80;99.90;;;;;;5057308;28;20511;-79
2021/06/30 01:35:48;;;;;;;37.00;32.10;;;19.70;99.90;;;;;;5057265;28;20507;-79
2021/06/30 01:38:15;;;;;;;35.70;31.90;;;19.60;99.90;;;;;;5056904;28;20500;-79
2021/06/30 01:40:43;;;;;;;39.00;34.37;;;19.60;99.90;;;;;;5057657;28;20494;-78
2021/06/30 01:43:09;;;;;;;39.30;35.27;;;19.60;99.90;;;;;;5057596;28;20473;-79
2021/06/30 01:45:36;;;;;;;39.83;35.27;;;19.50;99.90;;;;;;5057038;28;20514;-79
2021/06/30 01:48:04;;;;;;;42.40;37.73;;;19.50;99.90;;;;;;5057915;28;20480;-79
2021/06/30 01:50:30;;;;;;;38.40;34.50;;;19.60;99.90;;;;;;5058042;28;20466;-80
2021/06/30 01:52:57;;;;;;;43.60;35.20;;;19.50;99.90;;;;;;5058149;28;20463;-80
2021/06/30 01:55:23;;;;;;;39.30;35.23;;;19.60;99.90;;;;;;5057835;28;20514;-79
2021/06/30 01:57:52;;;;;;;39.10;35.03;;;19.50;99.90;;;;;;5062199;28;20447;-79
2021/06/30 02:00:20;;;;;;;41.73;37.00;;;19.50;99.90;;;;;;5063131;28;20449;-79
2021/06/30 02:02:48;;;;;;;40.30;35.90;;;19.50;99.90;;;;;;5062808;28;20529;-79
2021/06/30 02:05:16;;;;;;;39.50;35.27;;;19.40;99.90;;;;;;5063525;28;20828;-79
2021/06/30 02:07:45;;;;;;;43.00;36.20;;;19.40;99.90;;;;;;5062846;28;20444;-79
2021/06/30 02:10:12;;;;;;;40.30;36.13;;;19.40;99.90;;;;;;5061321;28;20450;-79
2021/06/30 02:12:39;;;;;;;42.20;37.60;;;19.50;99.90;;;;;;5067497;28;20498;-80
2021/06/30 02:15:14;;;;;;;43.80;36.10;;;19.50;99.90;;;;;;5068528;28;20474;-80
2021/06/30 02:17:41;;;;;;;42.10;36.37;;;19.50;99.90;;;;;;5068599;28;20428;-79
2021/06/30 02:20:10;;;;;;;45.30;39.67;;;19.50;99.90;;;;;;5062944;28;20454;-80
2021/06/30 02:22:38;;;;;;;42.93;37.83;;;19.50;99.90;;;;;;5058781;28;20475;-80
2021/06/30 02:25:06;;;;;;;43.17;38.47;;;19.50;99.90;;;;;;5058393;28;20507;-80
2021/06/30 02:27:33;;;;;;;48.87;39.17;;;19.50;99.90;;;;;;5059001;28;20449;-80
2021/06/30 02:30:00;;;;;;;49.13;41.83;;;19.50;99.90;;;;;;5057928;28;20542;-80
2021/06/30 02:32:28;;;;;;;45.50;39.27;;;19.60;99.90;;;;;;5057893;28;20500;-80
2021/06/30 02:34:56;;;;;;;39.17;34.60;;;19.50;99.90;;;;;;5057926;28;20449;-79
2021/06/30 02:37:22;;;;;;;47.00;40.00;;;19.50;99.90;;;;;;5058125;28;20500;-79
2021/06/30 02:39:49;;;;;;;41.53;37.07;;;19.50;99.90;;;;;;5058712;28;20445;-80
2021/06/30 02:42:16;;;;;;;44.80;39.63;;;19.40;99.90;;;;;;5059210;28;20452;-79
2021/06/30 02:44:42;;;;;;;48.20;40.07;;;19.40;99.90;;;;;;5062986;28;20480;-79
2021/06/30 02:47:09;;;;;;;43.77;39.03;;;19.40;99.90;;;;;;5062748;28;20445;-79
2021/06/30 02:49:37;;;;;;;47.57;40.77;;;19.40;99.90;;;;;;5062435;28;20538;-79
2021/06/30 02:52:04;;;;;;;48.07;41.83;;;19.30;99.90;;;;;;5059357;28;20463;-80
2021/06/30 02:54:31;;;;;;;49.57;40.37;;;19.40;99.90;;;;;;5058146;28;20472;-80
2021/06/30 02:56:57;;;;;;;43.90;38.80;;;19.40;99.90;;;;;;5057603;28;20489;-80
2021/06/30 02:59:24;;;;;;;48.13;42.70;;;19.40;99.90;;;;;;5058194;28;20506;-80
2021/06/30 03:01:51;;;;;;;47.00;41.90;;;19.50;99.90;;;;;;5057417;28;20533;-80
2021/06/30 03:04:18;;;;;;;49.87;40.67;;;19.60;99.90;;;;;;5058803;28;20491;-81
2021/06/30 03:06:45;;;;;;;48.53;41.07;;;19.60;99.90;;;;;;5057668;28;20452;-80
2021/06/30 03:09:12;;;;;;;46.30;41.40;;;19.60;99.90;;;;;;5059124;28;20486;-80
2021/06/30 03:11:39;;;;;;;44.73;38.67;;;19.50;99.90;;;;;;5058455;28;20804;-80
2021/06/30 03:14:06;;;;;;;36.77;33.03;;;19.50;99.90;;;;;;5056900;28;20445;-80
2021/06/30 03:16:33;;;;;;;37.47;33.47;;;19.50;99.90;;;;;;5057533;28;20452;-79
2021/06/30 03:18:59;;;;;;;40.13;35.93;;;19.50;99.90;;;;;;5065267;28;20451;-80
2021/06/30 03:21:26;;;;;;;39.27;35.03;;;19.50;99.90;;;;;;5070628;28;20441;-80
2021/06/30 03:23:54;;;;;;;41.60;36.87;;;19.60;99.90;;;;;;5067728;28;20451;-80
2021/06/30 03:26:20;;;;;;;35.53;31.87;;;19.60;99.90;;;;;;5062162;28;20832;-80
2021/06/30 03:28:47;;;;;;;34.00;30.60;;;19.50;99.90;;;;;;5058784;28;20477;-80
2021/06/30 03:31:13;;;;;;;36.43;31.53;;;19.50;99.90;;;;;;5069419;28;20451;-80
2021/06/30 03:33:42;;;;;;;34.77;30.37;;;19.50;99.90;;;;;;5069623;28;20879;-80
2021/06/30 03:36:09;;;;;;;33.80;30.13;;;19.40;99.90;;;;;;5058921;28;20792;-80
2021/06/30 03:38:36;;;;;;;33.93;30.33;;;19.40;99.90;;;;;;5058242;28;20441;-80
2021/06/30 03:41:05;;;;;;;34.60;31.10;;;19.40;99.90;;;;;;5065127;28;20448;-80
2021/06/30 03:43:32;;;;;;;34.40;30.73;;;19.40;99.90;;;;;;5066290;28;20479;-79
2021/06/30 03:45:58;;;;;;;37.30;32.43;;;19.40;99.90;;;;;;5068334;28;20456;-79
2021/06/30 03:48:25;;;;;;;34.27;30.67;;;19.50;99.90;;;;;;5063061;28;20441;-80
2021/06/30 03:50:51;;;;;;;36.10;32.30;;;19.40;99.90;;;;;;5057495;28;20449;-80
2021/06/30 03:53:18;;;;;;;37.97;33.87;;;19.50;99.90;;;;;;5056774;28;20464;-80
2021/06/30 03:55:45;;;;;;;35.90;32.10;;;19.50;99.90;;;;;;5058827;28;20797;-80
2021/06/30 03:58:12;;;;;;;37.20;33.20;;;19.40;99.90;;;;;;5069052;28;20440;-80
2021/06/30 04:00:39;;;;;;;37.57;33.67;;;19.40;99.90;;;;;;5064161;28;20444;-78
2021/06/30 04:03:06;;;;;;;40.13;33.17;;;19.30;99.90;;;;;;5059627;28;20476;-79
2021/06/30 04:05:32;;;;;;;42.70;34.90;;;19.30;99.90;;;;;;5068691;28;20437;-79
2021/06/30 04:07:59;;;;;;;38.03;33.90;;;19.30;99.90;;;;;;5064645;28;20447;-79
2021/06/30 04:10:25;;;;;;;42.03;34.00;;;19.40;99.90;;;;;;5056383;28;20479;-80
2021/06/30 04:12:52;;;;;;;41.60;35.83;;;19.40;99.90;;;;;;5057330;28;20472;-80
2021/06/30 04:15:20;;;;;;;41.67;37.10;;;19.30;99.90;;;;;;5057406;28;20453;-80
2021/06/30 04:17:46;;;;;;;41.77;36.03;;;19.30;99.90;;;;;;5056320;28;20440;-79
2021/06/30 04:20:13;;;;;;;40.07;35.83;;;19.20;99.90;;;;;;5055953;28;20882;-79
2021/06/30 04:22:40;;;;;;;42.13;35.77;;;19.30;99.90;;;;;;5056838;28;20476;-79
2021/06/30 04:25:08;;;;;;;39.37;35.20;;;19.20;99.90;;;;;;5054915;28;20440;-79
2021/06/30 04:27:35;;;;;;;43.50;37.00;;;19.20;99.90;;;;;;5054762;28;20451;-79
2021/06/30 04:30:04;;;;;;;39.73;35.67;;;19.10;99.90;;;;;;5054460;28;20487;-79
2021/06/30 04:32:32;;;;;;;38.37;34.00;;;19.10;99.90;;;;;;5055002;28;21048;-79
2021/06/30 04:34:58;;;;;;;43.73;36.50;;;19.10;99.90;;;;;;5055055;28;20452;-78
2021/06/30 04:37:25;;;;;;;39.00;33.10;;;19.00;99.90;;;;;;5053905;28;20456;-77
2021/06/30 04:39:52;;;;;;;45.67;35.90;;;19.10;99.90;;;;;;5054169;28;20472;-77
2021/06/30 04:42:19;;;;;;;48.10;37.10;;;19.00;99.90;;;;;;5054142;28;20507;-76
2021/06/30 04:44:46;;;;;;;40.80;36.30;;;18.90;99.90;;;;;;5055225;28;20459;-80
2021/06/30 04:47:12;;;;;;;38.00;34.00;;;18.90;99.90;;;;;;5054040;28;20519;-79
2021/06/30 04:49:40;;;;;;;40.43;32.80;;;19.00;99.90;;;;;;5053700;28;20475;-77
2021/06/30 04:52:07;;;;;;;41.10;34.93;;;18.90;99.90;;;;;;5053246;28;20501;-78
2021/06/30 04:54:34;;;;;;;39.90;34.87;;;18.90;99.90;;;;;;5053166;28;20477;-78
2021/06/30 04:57:00;;;;;;;42.10;36.07;;;18.80;99.90;;;;;;5054023;28;20485;-78
2021/06/30 04:59:27;;;;;;;44.70;35.97;;;18.80;99.90;;;;;;5052886;28;20581;-78
2021/06/30 05:01:54;;;;;;;38.70;34.50;;;18.80;99.90;;;;;;5053192;28;20475;-78
2021/06/30 05:04:21;;;;;;;39.37;35.17;;;18.90;99.90;;;;;;5052967;28;20427;-78
2021/06/30 05:06:49;;;;;;;41.53;35.33;;;18.90;99.90;;;;;;5053748;28;20500;-78
2021/06/30 05:09:15;;;;;;;37.10;33.10;;;18.90;99.90;;;;;;5054420;28;20505;-79
2021/06/30 05:11:42;;;;;;;36.90;32.87;;;18.50;99.90;;;;;;5060601;28;20453;-78
2021/06/30 05:14:09;;;;;;;36.03;32.10;;;18.90;99.90;;;;;;5056653;28;20541;-78
2021/06/30 05:16:35;;;;;;;41.17;32.07;;;18.80;99.90;;;;;;5059645;28;20474;-77
2021/06/30 05:19:02;;;;;;;35.33;31.33;;;18.80;99.90;;;;;;5065393;28;20446;-78
2021/06/30 05:21:28;;;;;;;33.43;29.93;;;18.80;99.90;;;;;;5067649;28;20488;-78
2021/06/30 05:23:56;;;;;;;35.70;31.77;;;18.80;99.90;;;;;;5064860;28;20444;-78
2021/06/30 05:26:23;;;;;;;32.70;29.33;;;18.90;99.90;;;;;;5060158;28;20474;-79
2021/06/30 05:28:49;;;;;;;34.83;30.70;;;18.80;99.90;;;;;;5058198;28;20447;-77
2021/06/30 05:31:16;;;;;;;36.57;31.30;;;18.80;99.90;;;;;;5058257;28;20442;-78
2021/06/30 05:33:43;;;;;;;29.17;26.07;;;18.90;99.90;;;;;;5057740;28;20480;-79
2021/06/30 05:36:09;;;;;;;30.23;27.10;;;18.90;99.90;;;;;;5056954;28;20454;-78
2021/06/30 05:38:36;;;;;;;28.73;25.73;;;19.00;99.90;;;;;;5057437;28;20477;-78
2021/06/30 05:41:04;;;;;;;27.40;24.80;;;18.90;99.90;;;;;;5057944;28;20442;-78
2021/06/30 05:43:31;;;;;;;27.53;24.73;;;18.80;99.90;;;;;;5058358;28;20497;-77
2021/06/30 05:45:58;;;;;;;24.37;22.07;;;18.70;99.90;;;;;;5063850;28;20535;-77
2021/06/30 05:48:24;;;;;;;23.60;21.30;;;18.70;99.90;;;;;;5062695;28;20477;-77
2021/06/30 05:50:51;;;;;;;24.70;22.13;;;18.80;99.90;;;;;;5062859;28;20518;-78
2021/06/30 05:53:18;;;;;;;25.73;22.53;;;18.70;99.90;;;;;;5062755;28;20495;-78
2021/06/30 05:55:44;;;;;;;24.33;22.03;;;18.70;99.90;;;;;;5058501;28;20437;-79
2021/06/30 05:58:12;;;;;;;23.40;21.00;;;18.60;99.90;;;;;;5057248;28;20436;-78
2021/06/30 06:00:39;;;;;;;23.30;20.87;;;18.70;99.90;;;;;;5056448;28;20452;-78
2021/06/30 06:03:05;;;;;;;22.93;20.73;;;18.70;99.90;;;;;;5056015;28;20504;-79
2021/06/30 06:05:32;;;;;;;27.90;25.20;;;18.80;99.90;;;;;;5055843;28;20447;-78
2021/06/30 06:08:01;;;;;;;26.10;23.30;;;18.80;99.90;;;;;;5056768;28;20451;-78
2021/06/30 06:10:28;;;;;;;27.20;24.40;;;18.80;99.90;;;;;;5058292;28;20528;-78
2021/06/30 06:12:54;;;;;;;26.43;23.83;;;18.70;99.90;;;;;;5059757;28;20994;-78
2021/06/30 06:15:22;;;;;;;28.33;25.30;;;18.60;99.90;;;;;;5059139;28;20474;-78
2021/06/30 06:17:49;;;;;;;48.83;43.63;;;18.60;99.90;;;;;;5058805;28;20444;-78
2021/06/30 06:20:16;;;;;;;105.10;88.23;;;18.70;99.90;;;;;;5056852;28;20443;-78
2021/06/30 06:22:43;;;;;;;33.60;30.00;;;18.70;99.90;;;;;;5056268;28;20470;-78
2021/06/30 06:25:10;;;;;;;31.13;27.63;;;18.70;99.90;;;;;;5054795;28;20449;-78
2021/06/30 06:27:38;;;;;;;33.13;29.70;;;18.70;99.90;;;;;;5056017;28;20951;-78
2021/06/30 06:30:06;;;;;;;32.77;29.40;;;18.70;99.90;;;;;;5058766;28;20893;-78
2021/06/30 06:32:35;;;;;;;31.77;28.30;;;18.70;99.90;;;;;;5056433;28;20470;-79
2021/06/30 06:35:01;;;;;;;30.43;27.43;;;18.60;99.90;;;;;;5056153;28;20454;-79
2021/06/30 06:37:28;;;;;;;30.17;27.00;;;18.60;99.90;;;;;;5056849;28;20486;-79
2021/06/30 06:39:55;;;;;;;30.07;26.83;;;18.60;99.90;;;;;;5057237;28;20447;-79
2021/06/30 06:42:22;;;;;;;28.93;25.93;;;18.60;99.90;;;;;;5059187;28;20510;-78
2021/06/30 06:44:48;;;;;;;28.03;25.10;;;18.60;99.90;;;;;;5065749;28;20438;-77
2021/06/30 06:47:15;;;;;;;26.80;23.87;;;18.60;99.90;;;;;;5068512;28;20536;-78
2021/06/30 06:49:43;;;;;;;27.10;24.40;;;18.60;99.90;;;;;;5066598;28;20489;-78
2021/06/30 06:52:09;;;;;;;27.20;24.30;;;18.60;99.90;;;;;;5061690;28;20473;-77
2021/06/30 06:54:36;;;;;;;26.00;23.47;;;18.70;99.90;;;;;;5062124;28;20552;-77
2021/06/30 06:57:03;;;;;;;24.93;22.30;;;18.60;99.90;;;;;;5061433;28;20442;-77
2021/06/30 06:59:30;;;;;;;28.17;25.20;;;18.70;99.90;;;;;;5060042;28;20450;-77
2021/06/30 07:01:56;;;;;;;28.47;25.67;;;18.70;99.90;;;;;;5062614;28;20479;-78
2021/06/30 07:04:23;;;;;;;22.63;20.43;;;18.70;99.90;;;;;;5058565;28;20488;-79
2021/06/30 07:06:50;;;;;;;21.70;19.70;;;18.70;99.90;;;;;;5058276;28;20494;-78
2021/06/30 07:09:20;;;;;;;20.80;18.80;;;18.70;99.90;;;;;;5056639;28;20509;-78
2021/06/30 07:11:47;;;;;;;21.80;19.73;;;18.70;99.90;;;;;;5056473;28;20844;-79
2021/06/30 07:14:13;;;;;;;20.87;18.93;;;18.80;99.90;;;;;;5056395;28;20516;-78
2021/06/30 07:16:40;;;;;;;20.80;18.90;;;18.80;99.90;;;;;;5055916;28;20450;-78
2021/06/30 07:19:06;;;;;;;20.83;18.93;;;18.80;99.90;;;;;;5056314;28;20476;-78
2021/06/30 07:21:33;;;;;;;19.53;17.53;;;19.10;99.90;;;;;;5056741;28;20446;-79
2021/06/30 07:24:01;;;;;;;21.13;19.03;;;18.80;99.90;;;;;;5060097;28;20455;-78
2021/06/30 07:26:28;;;;;;;21.10;19.00;;;18.80;99.90;;;;;;5056308;28;20471;-78
2021/06/30 07:28:54;;;;;;;21.77;19.57;;;18.80;99.90;;;;;;5056854;28;20481;-79
2021/06/30 07:31:22;;;;;;;19.40;17.67;;;18.80;99.90;;;;;;5056527;28;20556;-79
2021/06/30 07:33:48;;;;;;;23.83;19.00;;;18.80;99.90;;;;;;5055682;28;20474;-79
2021/06/30 07:36:16;;;;;;;21.83;18.37;;;18.80;99.90;;;;;;5056750;28;20532;-79
2021/06/30 07:38:43;;;;;;;19.07;17.17;;;18.80;99.90;;;;;;5063117;28;20499;-78
2021/06/30 07:41:11;;;;;;;18.87;17.10;;;18.80;99.90;;;;;;5065303;28;20447;-79
2021/06/30 07:43:37;;;;;;;18.77;16.93;;;18.80;99.90;;;;;;5060233;28;20473;-80
2021/06/30 07:46:04;;;;;;;18.57;16.77;;;18.80;99.90;;;;;;5059688;28;20451;-80
2021/06/30 07:48:31;;;;;;;19.60;17.80;;;18.70;99.90;;;;;;5061067;28;20445;-80
2021/06/30 07:50:57;;;;;;;17.87;16.17;;;18.60;99.90;;;;;;5059356;28;20481;-79
2021/06/30 07:53:24;;;;;;;19.00;17.10;;;18.70;99.90;;;;;;5058473;28;20471;-79
2021/06/30 07:55:51;;;;;;;19.97;17.97;;;18.70;99.90;;;;;;5058761;28;20454;-79
2021/06/30 07:58:20;;;;;;;17.90;16.10;;;18.70;99.90;;;;;;5058203;28;20454;-78
2021/06/30 08:00:47;;;;;;;17.23;15.50;;;18.60;99.90;;;;;;5057592;28;20505;-79
2021/06/30 08:03:14;;;;;;;16.93;15.23;;;18.60;99.90;;;;;;5057178;28;20493;-78
2021/06/30 08:05:40;;;;;;;17.23;15.40;;;18.60;99.90;;;;;;5057193;28;20500;-79
2021/06/30 08:08:07;;;;;;;14.90;13.40;;;18.60;99.90;;;;;;5056863;28;20439;-79
2021/06/30 08:10:34;;;;;;;13.70;12.40;;;18.60;99.90;;;;;;5055843;28;20922;-78
2021/06/30 08:13:00;;;;;;;14.20;12.80;;;18.50;99.90;;;;;;5053842;28;20845;-78
2021/06/30 08:15:28;;;;;;;15.30;13.80;;;18.50;99.90;;;;;;5054270;28;20458;-78
2021/06/30 08:17:55;;;;;;;16.27;14.37;;;18.50;99.90;;;;;;5054443;28;20481;-78
2021/06/30 08:20:21;;;;;;;17.43;14.97;;;18.50;99.90;;;;;;5054390;28;20504;-77
2021/06/30 08:22:48;;;;;;;16.20;14.57;;;18.60;99.90;;;;;;5054856;28;20983;-78
2021/06/30 08:25:16;;;;;;;16.40;14.53;;;18.50;99.90;;;;;;5054593;28;21005;-78
2021/06/30 08:27:43;;;;;;;18.57;16.60;;;18.60;99.90;;;;;;5054299;28;20450;-77
2021/06/30 08:30:11;;;;;;;15.80;14.20;;;18.50;99.90;;;;;;5054450;28;20531;-78
2021/06/30 08:35:10;;;;;;;19.77;17.57;;;18.50;99.90;;;;;;5033029;28;20491;-78
2021/06/30 08:37:41;;;;;;;19.17;16.93;;;18.50;99.90;;;;;;5036479;28;20458;-79
2021/06/30 08:40:08;;;;;;;18.93;16.73;;;18.40;99.90;;;;;;5036762;28;20443;-79
2021/06/30 08:42:35;;;;;;;25.20;17.33;;;18.40;99.90;;;;;;5038627;28;20467;-77
2021/06/30 08:45:02;;;;;;;23.93;18.50;;;18.40;99.90;;;;;;5036872;28;20479;-78
2021/06/30 08:47:34;;;;;;;24.20;19.57;;;18.30;99.90;;;;;;5063140;22;20513;-78
2021/06/30 08:50:03;;;;;;;24.90;17.23;;;18.60;99.90;;;;;;5056678;28;20431;-78
2021/06/30 08:52:31;;;;;;;24.20;18.17;;;18.30;99.90;;;;;;5057614;28;20467;-77
2021/06/30 08:55:00;;;;;;;24.23;18.67;;;18.30;99.90;;;;;;5057293;28;20477;-77
2021/06/30 08:57:27;;;;;;;21.80;19.40;;;18.30;99.90;;;;;;5057037;28;20846;-77
2021/06/30 08:59:54;;;;;;;25.57;18.90;;;18.40;99.90;;;;;;5057362;28;20450;-78
2021/06/30 09:02:20;;;;;;;20.97;18.80;;;18.30;99.90;;;;;;5057360;28;20554;-77
2021/06/30 09:04:47;;;;;;;20.27;16.30;;;18.20;99.90;;;;;;5056772;28;21020;-77
2021/06/30 09:07:13;;;;;;;116.27;52.57;;;18.10;99.90;;;;;;5056672;28;20474;-78
2021/06/30 09:09:42;;;;;;;16.20;14.50;;;18.20;99.90;;;;;;5056973;28;20484;-77
2021/06/30 09:12:10;;;;;;;17.60;15.00;;;18.40;99.90;;;;;;5056558;28;20481;-77
2021/06/30 09:14:40;;;;;;;17.17;14.60;;;18.10;99.90;;;;;;5056395;28;20998;-77
2021/06/30 09:17:17;;;;;;;18.20;14.33;;;18.10;99.90;;;;;;5056554;28;20451;-78
2021/06/30 09:19:55;;;;;;;13.40;12.00;;;18.10;99.90;;;;;;5056628;28;20441;-77
2021/06/30 09:22:24;;;;;;;14.67;13.17;;;18.10;99.90;;;;;;5056489;28;20449;-77
2021/06/30 09:24:52;;;;;;;17.20;13.83;;;18.00;99.90;;;;;;5056524;28;20452;-77
2021/06/30 09:27:19;;;;;;;14.93;13.43;;;18.20;99.90;;;;;;5056198;28;20544;-78
2021/06/30 09:29:47;;;;;;;13.07;11.80;;;18.00;99.90;;;;;;5056210;28;20486;-77
2021/06/30 09:32:15;;;;;;;17.50;13.73;;;18.00;99.90;;;;;;5056332;28;20889;-77
2021/06/30 09:34:42;;;;;;;13.50;12.10;;;18.00;99.90;;;;;;5056353;28;20457;-77
2021/06/30 09:37:10;;;;;;;11.80;10.60;;;18.00;99.90;;;;;;5055929;28;20450;-78
2021/06/30 09:39:39;;;;;;;11.60;10.40;;;18.00;99.90;;;;;;5055974;28;20450;-77
2021/06/30 09:42:10;;;;;;;13.80;11.20;;;18.00;99.90;;;;;;5055986;28;20453;-77
2021/06/30 09:44:37;;;;;;;13.67;12.27;;;17.90;99.90;;;;;;5056221;28;20511;-77
2021/06/30 09:47:05;;;;;;;17.30;14.57;;;17.80;99.90;;;;;;5055831;28;20529;-78
2021/06/30 09:49:33;;;;;;;18.33;16.30;;;17.90;99.90;;;;;;5056117;28;20444;-77
2021/06/30 09:52:09;;;;;;;17.53;14.80;;;18.00;99.90;;;;;;5055543;28;20496;-77
2021/06/30 09:54:37;;;;;;;16.50;14.17;;;18.00;99.90;;;;;;5055690;28;20473;-77
2021/06/30 09:57:07;;;;;;;15.30;10.97;;;18.10;99.90;;;;;;5055977;28;20453;-77
2021/06/30 09:59:38;;;;;;;11.10;10.13;;;18.10;99.90;;;;;;5055676;28;20446;-78
2021/06/30 10:02:07;;;;;;;11.13;9.97;;;17.80;99.90;;;;;;5055968;28;20429;-77
2021/06/30 10:04:36;;;;;;;11.40;10.40;;;17.80;99.90;;;;;;5056380;28;20514;-78
2021/06/30 10:07:06;;;;;;;11.63;10.50;;;17.80;99.90;;;;;;5055644;28;20495;-78
2021/06/30 10:09:33;;;;;;;17.13;13.80;;;17.80;99.90;;;;;;5055909;28;20811;-78
2021/06/30 10:12:02;;;;;;;16.63;14.97;;;17.80;99.90;;;;;;5055489;28;20576;-78
2021/06/30 10:14:29;;;;;;;18.90;14.73;;;17.90;99.90;;;;;;5055581;28;20499;-78
2021/06/30 10:16:58;;;;;;;16.57;14.57;;;18.00;99.90;;;;;;5055115;28;20944;-77
2021/06/30 10:19:25;;;;;;;19.23;16.17;;;18.00;99.90;;;;;;5055365;28;20486;-78
2021/06/30 10:21:51;;;;;;;19.53;16.30;;;18.10;99.90;;;;;;5055381;28;20507;-77
2021/06/30 10:24:19;;;;;;;19.67;17.00;;;18.10;99.90;;;;;;5055261;28;20476;-77
2021/06/30 10:26:46;;;;;;;19.70;17.70;;;18.10;99.90;;;;;;5055494;28;20477;-77
2021/06/30 10:29:13;;;;;;;16.43;14.93;;;18.10;99.90;;;;;;5055051;28;20466;-78
2021/06/30 10:31:42;;;;;;;17.00;15.37;;;18.00;99.90;;;;;;5055123;28;20513;-77
2021/06/30 10:34:12;;;;;;;16.63;15.07;;;17.90;99.90;;;;;;5055303;28;20449;-77
2021/06/30 10:36:51;;;;;;;15.90;14.30;;;17.80;99.90;;;;;;5054791;28;20468;-77
2021/06/30 10:39:19;;;;;;;17.90;16.17;;;17.90;99.90;;;;;;5055350;28;20470;-77
2021/06/30 10:41:52;;;;;;;17.97;16.10;;;17.90;99.90;;;;;;5054905;28;20854;-77
2021/06/30 10:44:20;;;;;;;17.90;16.10;;;17.90;99.90;;;;;;5055113;28;20464;-77
2021/06/30 10:46:47;;;;;;;23.43;17.80;;;17.90;99.90;;;;;;5054972;28;20503;-77
2021/06/30 10:49:24;;;;;;;19.97;18.10;;;17.90;99.90;;;;;;5054808;28;20530;-77
2021/06/30 10:51:52;;;;;;;21.70;19.30;;;18.00;99.90;;;;;;5055571;28;20473;-77
2021/06/30 10:54:49;;;;;;;20.80;18.60;;;18.00;99.90;;;;;;5055066;28;20446;-77
2021/06/30 10:57:29;;;;;;;22.00;19.80;;;17.80;99.90;;;;;;4993387;28;20512;-77
2021/06/30 11:00:23;;;;;;;20.90;18.80;;;18.10;99.90;;;;;;5046085;28;20492;-78
2021/06/30 11:03:28;;;;;;;22.40;19.50;;;18.10;99.90;;;;;;5019800;28;20465;-78
2021/06/30 11:06:17;;;;;;;20.30;18.40;;;18.00;99.90;;;;;;5056433;28;20507;-77
2021/06/30 11:08:46;;;;;;;21.63;19.40;;;18.10;99.90;;;;;;5056175;28;20477;-77
2021/06/30 11:11:15;;;;;;;21.17;18.63;;;18.10;99.90;;;;;;5054975;28;20488;-77
2021/06/30 11:13:56;;;;;;;20.03;18.13;;;18.10;99.90;;;;;;5055181;28;20446;-77
2021/06/30 11:16:48;;;;;;;19.03;17.13;;;18.00;99.90;;;;;;5055766;28;20455;-78
2021/06/30 11:19:45;;;;;;;20.47;18.37;;;17.90;99.90;;;;;;5054307;28;20485;-77
2021/06/30 11:22:26;;;;;;;22.03;19.67;;;18.00;99.90;;;;;;5054589;28;20454;-77
2021/06/30 11:24:53;;;;;;;23.17;20.80;;;18.00;99.90;;;;;;5054330;28;20450;-77
2021/06/30 11:27:41;;;;;;;21.63;19.43;;;18.00;99.90;;;;;;5054219;28;20458;-77
2021/06/30 11:30:10;;;;;;;23.47;21.07;;;18.00;99.90;;;;;;5054032;28;20446;-78
2021/06/30 11:32:46;;;;;;;21.50;19.10;;;17.90;99.90;;;;;;5053818;28;20480;-77
2021/06/30 11:35:28;;;;;;;25.17;21.20;;;17.90;99.90;;;;;;5054512;28;20469;-77
2021/06/30 11:37:59;;;;;;;21.23;19.13;;;17.90;99.90;;;;;;5054038;28;20760;-77
2021/06/30 11:40:29;;;;;;;20.87;18.80;;;17.90;99.90;;;;;;5054150;28;20517;-77
2021/06/30 11:42:58;;;;;;;21.17;18.97;;;17.90;99.90;;;;;;5054626;28;20521;-77
2021/06/30 11:45:27;;;;;;;21.40;18.80;;;17.90;99.90;;;;;;5055190;28;20482;-76
2021/06/30 11:47:54;;;;;;;23.30;20.90;;;18.00;99.90;;;;;;5055207;28;20907;-77
2021/06/30 11:50:24;;;;;;;21.43;19.33;;;17.90;99.90;;;;;;5054799;28;20449;-76
2021/06/30 11:52:51;;;;;;;22.40;19.27;;;18.00;99.90;;;;;;5053785;28;20514;-76
2021/06/30 11:55:20;;;;;;;21.40;19.10;;;18.00;99.90;;;;;;5054042;28;20453;-77
2021/06/30 11:57:51;;;;;;;24.23;20.13;;;17.90;99.90;;;;;;5053735;28;20473;-76
2021/06/30 12:00:18;;;;;;;27.73;21.40;;;17.90;99.90;;;;;;5053809;28;20970;-77
2021/06/30 12:02:45;;;;;;;49.03;34.73;;;17.90;99.90;;;;;;5053557;28;20503;-76
2021/06/30 12:05:13;;;;;;;23.13;20.60;;;17.90;99.90;;;;;;5053609;28;20445;-77
2021/06/30 12:07:43;;;;;;;22.43;18.90;;;17.90;99.90;;;;;;5053400;28;20508;-77
2021/06/30 12:10:10;;;;;;;20.33;18.40;;;17.80;99.90;;;;;;5053546;28;20425;-76
2021/06/30 12:12:42;;;;;;;19.00;17.07;;;17.90;99.90;;;;;;5053068;28;21031;-77
2021/06/30 12:15:11;;;;;;;23.43;19.80;;;17.80;99.90;;;;;;5053861;28;20434;-77
2021/06/30 12:17:44;;;;;;;23.73;21.10;;;17.80;99.90;;;;;;5053086;28;21053;-77
2021/06/30 12:20:11;;;;;;;21.23;18.93;;;17.90;99.90;;;;;;5053733;28;20437;-76
2021/06/30 12:22:39;;;;;;;26.43;22.40;;;17.90;99.90;;;;;;5053627;28;20441;-76
2021/06/30 12:25:08;;;;;;;25.63;21.50;;;17.90;99.90;;;;;;5053546;28;20520;-77
2021/06/30 12:27:36;;;;;;;29.27;23.30;;;18.00;99.90;;;;;;5053304;28;20465;-77
2021/06/30 12:30:07;;;;;;;22.40;20.00;;;18.00;99.90;;;;;;5053284;28;20455;-76
2021/06/30 12:32:35;;;;;;;19.67;16.30;;;18.00;99.90;;;;;;5053067;28;20770;-76
2021/06/30 12:35:03;;;;;;;17.10;15.40;;;18.00;99.90;;;;;;5053570;28;20453;-76